Flight Track Log - Related Links

Times and Time Zones

All times are in EST time to prevent confusion due to time zone crossing. See the AAY863 flight status page for this flight to view local times or setup timezone preferences in your user account.

Time Position Orientation Groundspeed Altitude Reporting Facility
EST Latitude Longitude Course Direction KTS MPH feet Rate Location/Type
Sun 07:42:44 PM 41.8642 -91.7986 143° Southeast 215 247 4,300  Level Chicago Center
Sun 07:43:46 PM 41.7947 -91.8019 182° South 276 318 7,400 2,758 Climbing Chicago Center
Sun 07:44:48 PM 41.7247 -91.7386 146° Southeast 306 352 10,000 2,274 Climbing Chicago Center
Sun 07:45:50 PM 41.6175 -91.6706 155° Southeast 358 412 12,100 1,887 Climbing Chicago Center
Sun 07:46:52 PM 41.5167 -91.6131 157° South 392 451 13,900 1,984 Climbing Chicago Center
Sun 07:47:00 PM 41.1018 -91.1184 143° Southeast  Level FlightAware
Sun 07:47:54 PM 41.4250 -91.5044 138° Southeast 438 504 16,200  Level Chicago Center
Sun 07:48:55 PM 41.3247 -91.4108 145° Southeast 442 509 18,000 1,902 Climbing Chicago Center
Sun 07:49:57 PM 41.2072 -91.3014 145° Southeast 458 527 20,100 1,790 Climbing Chicago Center
Sun 07:50:59 PM 41.1064 -91.1978 142° Southeast 458 527 21,700 1,355 Climbing Chicago Center
Sun 07:52:01 PM 41.0086 -91.0733 136° Southeast 484 557 22,900 1,403 Climbing Chicago Center
Sun 07:53:03 PM 40.9078 -90.9500 137° Southeast 494 568 24,600 1,500 Climbing Chicago Center
Sun 07:54:05 PM 40.8058 -90.8267 138° Southeast 497 572 26,000 1,161 Climbing Chicago Center
Sun 07:55:07 PM 40.7036 -90.7028 137° Southeast 500 575 27,000 629 Climbing Chicago Center
Sun 07:56:09 PM 40.5817 -90.5547 137° Southeast 500 575 27,300 581 Climbing Chicago Center
Sun 07:57:11 PM 40.4806 -90.4344 138° Southeast 497 572 28,200 1,415 Climbing Chicago Center
Sun 07:58:12 PM 40.3856 -90.3208 138° Southeast 473 544 30,200 1,366 Climbing Chicago Center
Sun 07:59:14 PM 40.2914 -90.2094 138° Southeast 462 532 31,000 387 Climbing Chicago Center
Sun 08:00:16 PM 40.1969 -90.0969 138° Southeast 462 532 31,000  Level Chicago Center
Sun 08:00:47 PM 40.1394 -90.0292 138° Southeast 461 531 31,000  Level Kansas Center
Sun 08:01:48 PM 40.0447 -89.9181 138° Southeast 461 531 31,000  Level Kansas Center
Sun 08:02:50 PM 39.9506 -89.8067 138° Southeast 461 531 31,000  Level Kansas Center
Sun 08:03:52 PM 39.8553 -89.6975 139° Southeast 461 531 31,000  Level Kansas Center
Sun 08:04:54 PM 39.7389 -89.5717 140° Southeast 460 529 31,000  Level Kansas Center
Sun 08:05:55 PM 39.6406 -89.4717 142° Southeast 456 525 31,000  Level Kansas Center
Sun 08:06:57 PM 39.5339 -89.4017 153° Southeast 440 506 31,000  Level Kansas Center
Sun 08:07:59 PM 39.4267 -89.3358 155° Southeast 430 495 31,000  Level Kansas Center
Sun 08:09:00 PM 39.3194 -89.2683 154° Southeast 430 495 31,000  Level Kansas Center
Sun 08:10:02 PM 39.2136 -89.2011 154° Southeast 429 494 31,000  Level Kansas Center
Sun 08:11:04 PM 39.1069 -89.1347 154° Southeast 429 494 31,000  Level Kansas Center
Sun 08:12:05 PM 39.0006 -89.0689 154° Southeast 427 491 31,000  Level Kansas Center
Sun 08:13:07 PM 38.8689 -88.9867 154° Southeast 426 490 31,000  Level Kansas Center
Sun 08:14:09 PM 38.7669 -88.9214 153° Southeast 426 490 31,000  Level Kansas Center
Sun 08:15:10 PM 38.6581 -88.8539 154° Southeast 428 493 31,000  Level Kansas Center
Sun 08:16:12 PM 38.5356 -88.7806 155° Southeast 435 501 31,000  Level Kansas Center
Sun 08:17:13 PM 38.4278 -88.7142 154° Southeast 434 499 31,000  Level Kansas Center
Sun 08:18:15 PM 38.3236 -88.6508 154° Southeast 434 499 31,000  Level Kansas Center
Sun 08:20:03 PM 38.1269 -88.5303 154° Southeast 433 498 31,000  Level Memphis Center
Sun 08:21:08 PM 38.0181 -88.4628 154° Southeast 435 501 31,000  Level Kansas Center
Sun 08:22:09 PM 37.9067 -88.3975 155° Southeast 435 501 31,000  Level Kansas Center
Sun 08:23:11 PM 37.7722 -88.3142 154° Southeast 442 509 31,000  Level Kansas Center
Sun 08:24:13 PM 37.6583 -88.2472 155° Southeast 444 511 31,000  Level Indianapolis Center
Sun 08:25:15 PM 37.5464 -88.1786 154° Southeast 445 512 31,000  Level Indianapolis Center
Sun 08:26:16 PM 37.4300 -88.1094 155° Southeast 452 520 31,000  Level Indianapolis Center
Sun 08:27:18 PM 37.3139 -88.0408 155° Southeast 454 522 31,000  Level Indianapolis Center
Sun 08:28:14 PM 37.1975 -87.9725 155° Southeast 456 525 31,000  Level Memphis Center
Sun 08:29:15 PM 37.0806 -87.9019 154° Southeast 457 526 31,000  Level Memphis Center
Sun 08:30:16 PM 36.9636 -87.8333 155° Southeast 460 529 31,000  Level Memphis Center
Sun 08:31:18 PM 36.8469 -87.7653 155° Southeast 460 529 31,000  Level Memphis Center
Sun 08:32:19 PM 36.7300 -87.6967 155° Southeast 460 529 31,000  Level Memphis Center
Sun 08:33:20 PM 36.6125 -87.6283 155° Southeast 460 529 31,000  Level Memphis Center
Sun 08:34:22 PM 36.4972 -87.5608 155° Southeast 460 529 31,000  Level Memphis Center
Sun 08:35:23 PM 36.3836 -87.4964 155° Southeast 454 522 31,000  Level Memphis Center
Sun 08:36:25 PM 36.2692 -87.4300 155° Southeast 453 521 31,000  Level Memphis Center
Sun 08:37:26 PM 36.1328 -87.3522 155° Southeast 457 526 31,000  Level Memphis Center
Sun 08:38:27 PM 36.0133 -87.2831 155° Southeast 467 537 31,000  Level Memphis Center
Sun 08:39:29 PM 35.8928 -87.2153 156° South 470 541 31,000  Level Memphis Center
Sun 08:40:30 PM 35.7725 -87.1464 155° Southeast 470 541 31,000  Level Memphis Center
Sun 08:41:31 PM 35.6503 -87.0778 155° Southeast 475 547 31,000  Level Memphis Center
Sun 08:42:33 PM 35.5278 -87.0086 155° Southeast 475 547 31,000  Level Memphis Center
Sun 08:43:34 PM 35.4047 -86.9389 155° Southeast 481 554 31,000  Level Memphis Center
Sun 08:44:35 PM 35.2803 -86.8672 155° Southeast 487 560 31,000  Level Memphis Center
Sun 08:45:37 PM 35.1542 -86.7967 155° Southeast 490 564 31,000  Level Memphis Center
Sun 08:46:38 PM 35.0317 -86.7289 156° South 490 564 31,000  Level Memphis Center
Sun 08:47:39 PM 34.9086 -86.6594 155° Southeast 489 563 31,000  Level Memphis Center
Sun 08:48:41 PM 34.7844 -86.5922 156° South 488 562 31,000  Level Memphis Center
Sun 08:49:42 PM 34.6608 -86.5225 155° Southeast 488 562 31,000  Level Memphis Center
Sun 08:50:43 PM 34.5119 -86.4419 156° South 488 562 31,000  Level Memphis Center
Sun 08:51:45 PM 34.3878 -86.3739 156° South 488 562 31,000  Level Memphis Center
Sun 08:52:46 PM 34.2644 -86.3069 156° South 487 560 31,000  Level Memphis Center
Sun 08:53:58 PM 34.1108 -86.2217 155° Southeast 495 570 31,000  Level Atlanta Center
Sun 08:54:58 PM 33.9889 -86.1558 156° South 495 570 31,000  Level Atlanta Center
Sun 08:55:58 PM 33.8669 -86.0903 156° South 488 562 31,000  Level Atlanta Center
Sun 08:56:58 PM 33.7492 -86.0250 155° Southeast 483 556 31,000  Level Atlanta Center
Sun 08:57:58 PM 33.6247 -85.9597 156° South 478 550 31,000  Level Atlanta Center
Sun 08:58:58 PM 33.5150 -85.9025 156° South 478 550 31,000  Level Atlanta Center
Sun 08:59:58 PM 33.3928 -85.8378 156° South 478 550 31,000  Level Atlanta Center
Sun 09:00:58 PM 33.2728 -85.7731 156° South 478 550 31,000  Level Atlanta Center
Sun 09:01:58 PM 33.1483 -85.7061 156° South 478 550 31,000  Level Atlanta Center
Sun 09:02:58 PM 33.0261 -85.6419 156° South 478 550 31,000  Level Atlanta Center
Sun 09:03:58 PM 32.9017 -85.5753 156° South 478 550 31,000  Level Atlanta Center
Sun 09:04:58 PM 32.7772 -85.5089 156° South 478 550 31,000  Level Atlanta Center
Sun 09:05:58 PM 32.6425 -85.4375 156° South 478 550 31,000  Level Atlanta Center
Sun 09:06:58 PM 32.5181 -85.3714 156° South 484 557 31,000  Level Atlanta Center
Sun 09:07:58 PM 32.3933 -85.3081 157° South 484 557 31,000  Level Atlanta Center
Sun 09:10:01 PM 32.1500 -85.1819 156° South 506 582 31,000  Level Jacksonville Center
Sun 09:11:01 PM 32.0300 -85.1200 156° South 496 571 31,000  Level Jacksonville Center
Sun 09:12:01 PM 31.9039 -85.0558 157° South 491 565 31,000  Level Jacksonville Center
Sun 09:13:01 PM 31.7817 -84.9944 157° South 486 559 31,000  Level Jacksonville Center
Sun 09:14:01 PM 31.6575 -84.9306 156° South 486 559 31,000  Level Jacksonville Center
Sun 09:15:01 PM 31.5333 -84.8644 156° South 486 559 31,000  Level Jacksonville Center
Sun 09:16:01 PM 31.4153 -84.7939 153° Southeast 486 559 31,000  Level Jacksonville Center
Sun 09:17:01 PM 31.2972 -84.7233 153° Southeast 481 554 31,000  Level Jacksonville Center
Sun 09:18:01 PM 31.1772 -84.6506 153° Southeast 481 554 31,000 -300 Level Jacksonville Center
Sun 09:19:01 PM 31.0592 -84.5806 153° Southeast 481 554 30,400 -850 Descending Jacksonville Center
Sun 09:20:01 PM 30.9389 -84.5106 153° Southeast 481 554 29,300 -700 Descending Jacksonville Center
Sun 09:21:01 PM 30.8189 -84.4383 153° Southeast 481 554 29,000 -150 Descending Jacksonville Center
Sun 09:22:01 PM 30.6986 -84.3664 153° Southeast 481 554 29,000  Level Jacksonville Center
Sun 09:23:01 PM 30.5761 -84.2944 153° Southeast 486 559 29,000  Level Jacksonville Center
Sun 09:24:01 PM 30.4558 -84.2253 154° Southeast 492 566 29,000  Level Jacksonville Center
Sun 09:25:01 PM 30.3356 -84.1536 153° Southeast 485 558 29,000  Level Jacksonville Center
Sun 09:26:01 PM 30.2150 -84.0847 154° Southeast 485 558 29,000  Level Jacksonville Center
Sun 09:27:01 PM 30.0903 -84.0136 154° Southeast 485 558 29,000  Level Jacksonville Center
Sun 09:28:01 PM 29.9700 -83.9428 153° Southeast 485 558 29,000  Level Jacksonville Center
Sun 09:29:01 PM 29.8472 -83.8719 153° Southeast 485 558 29,000 -300 Level Jacksonville Center
Sun 09:30:01 PM 29.7267 -83.8014 153° Southeast 485 558 28,400 -850 Descending Jacksonville Center
Sun 09:31:01 PM 29.6039 -83.7333 154° Southeast 485 558 27,300 -1,000 Descending Jacksonville Center
Sun 09:32:01 PM 29.4833 -83.6631 153° Southeast 485 558 26,400 -950 Descending Jacksonville Center
Sun 09:33:01 PM 29.3628 -83.5931 153° Southeast 485 558 25,400 -700 Descending Jacksonville Center
Sun 09:34:01 PM 29.2419 -83.5233 153° Southeast 485 558 25,000 -200 Descending Jacksonville Center
Sun 09:35:01 PM 29.1233 -83.4511 152° Southeast 485 558 25,000 -50 Level Jacksonville Center
Sun 09:36:01 PM 28.9983 -83.3697 150° Southeast 496 571 24,900 -600 Descending Jacksonville Center
Sun 09:37:01 PM 28.8819 -83.2956 151° Southeast 496 571 23,800 -1,800 Descending Jacksonville Center
Sun 09:38:01 PM 28.7692 -83.2264 152° Southeast 483 556 21,300 -2,750 Descending Jacksonville Center
Sun 09:39:01 PM 28.6608 -83.1575 151° Southeast 462 532 18,300 -3,089 Descending Jacksonville Center
Sun 09:39:42 PM 28.5667 -83.1000 152° Southeast 434 499 16,100 -2,842 Descending Tampa TRACON
Sun 09:40:36 PM 28.4833 -83.0500 152° Southeast 417 480 13,800 -1,737 Descending Tampa TRACON
Sun 09:41:36 PM 28.4000 -82.9833 145° Southeast 370 426 12,800 -1,435 Descending Tampa TRACON
Sun 09:42:54 PM 28.3167 -82.8833 133° Southeast 304 350 10,500 -1,800 Descending Tampa TRACON
Sun 09:43:36 PM 28.2667 -82.8500 150° Southeast 299 344 9,200 -1,850 Descending Tampa TRACON
Sun 09:44:54 PM 28.2000 -82.7667 132° Southeast 282 325 6,800 -1,850 Descending Tampa TRACON
Sun 09:45:36 PM 28.1667 -82.7333 139° Southeast 263 303 5,500 -1,979 Descending Tampa TRACON
Sun 09:46:31 PM 28.1000 -82.7000 156° South 225 259 3,600 -1,591 Descending Tampa TRACON
Sun 09:47:48 PM 28.0333 -82.7167 192° South 200 230 2,000 -1,045 Descending Tampa TRACON
Sun 09:48:43 PM 27.9833 -82.7000 164° South 142 163 1,300 -757 Descending Tampa TRACON
Sun 09:49:31 PM 27.9500 -82.7000 180° South 128 147 700 -750 Descending Tampa TRACON

Login

Don't have an account? Register now (free) for customized features, flight alerts, and more!